Time;durP1;ratioP1;P1;durP2;ratioP2;P2;SDS_P1;SDS_P2;PMS_P1;PMS_P2;Temp;Humidity;BMP_temperature;BMP_pressure;BME280_temperature;BME280_humidity;BME280_pressure;Samples;Min_cycle;Max_cycle;Signal;HPM_P1;HPM_P2
2024/01/02 00:00:56;;;;;;;4.43;1.90;;;9.80;99.90;;;;;;5034557;28;20243;-78
2024/01/02 00:03:24;;;;;;;4.70;1.75;;;9.80;99.90;;;;;;5033677;28;20234;-85
2024/01/02 00:05:51;;;;;;;5.45;1.90;;;9.80;99.90;;;;;;5034445;28;20304;-78
2024/01/02 00:08:18;;;;;;;3.15;1.60;;;9.70;99.90;;;;;;5033985;28;20229;-78
2024/01/02 00:10:45;;;;;;;3.95;2.00;;;9.70;99.90;;;;;;5033920;28;20241;-78
2024/01/02 00:13:12;;;;;;;3.58;2.67;;;9.80;99.90;;;;;;5033979;28;20232;-86
2024/01/02 00:15:41;;;;;;;4.63;3.22;;;9.70;99.90;;;;;;5033409;28;20598;-85
2024/01/02 00:18:08;;;;;;;5.40;3.70;;;9.70;99.90;;;;;;5034012;28;20543;-78
2024/01/02 00:20:35;;;;;;;9.90;4.20;;;9.70;99.90;;;;;;5033361;28;20225;-78
2024/01/02 00:23:02;;;;;;;4.55;3.33;;;9.70;99.90;;;;;;5033653;28;20225;-78
2024/01/02 00:25:29;;;;;;;5.22;2.28;;;9.70;99.90;;;;;;5032727;28;20232;-78
2024/01/02 00:27:57;;;;;;;6.60;2.20;;;9.60;99.90;;;;;;5032738;28;20283;-78
2024/01/02 00:30:24;;;;;;;3.05;1.85;;;9.60;99.90;;;;;;5033326;28;20291;-79
2024/01/02 00:32:53;;;;;;;1.65;1.50;;;9.50;99.90;;;;;;5033406;28;20676;-86
2024/01/02 00:35:20;;;;;;;3.58;1.70;;;9.60;99.90;;;;;;5034411;28;20226;-78
2024/01/02 00:37:47;;;;;;;5.63;2.08;;;9.50;99.90;;;;;;5023827;28;20239;-78
2024/01/02 00:40:14;;;;;;;2.00;1.80;;;9.50;99.90;;;;;;5047665;28;20245;-78
2024/01/02 00:42:41;;;;;;;7.95;2.05;;;9.50;99.90;;;;;;5032984;28;20232;-78
2024/01/02 00:45:09;;;;;;;4.65;1.75;;;9.50;99.90;;;;;;5033417;28;20225;-86
2024/01/02 00:47:36;;;;;;;1.95;1.63;;;9.50;99.90;;;;;;5032582;28;20248;-86
2024/01/02 00:50:05;;;;;;;1.33;1.23;;;9.60;99.90;;;;;;5033417;28;20688;-86
2024/01/02 00:52:32;;;;;;;3.70;1.60;;;9.60;99.90;;;;;;5033147;28;20244;-86
2024/01/02 00:55:01;;;;;;;3.97;1.70;;;9.60;99.90;;;;;;5033278;28;20225;-86
2024/01/02 00:57:28;;;;;;;4.07;2.13;;;9.50;99.90;;;;;;5033079;28;20225;-78
2024/01/02 00:59:55;;;;;;;2.75;1.63;;;9.50;99.90;;;;;;5032809;28;20233;-78
2024/01/02 01:02:22;;;;;;;2.78;1.80;;;9.50;99.90;;;;;;5033235;28;20567;-78
2024/01/02 01:04:49;;;;;;;5.72;1.75;;;9.40;99.90;;;;;;5032158;28;20238;-78
2024/01/02 01:07:17;;;;;;;3.67;1.70;;;9.40;99.90;;;;;;5039197;28;20245;-86
2024/01/02 01:09:46;;;;;;;1.85;1.52;;;9.40;99.90;;;;;;5032748;28;20233;-85
2024/01/02 01:12:13;;;;;;;2.97;1.90;;;9.40;99.90;;;;;;5033221;28;20556;-85
2024/01/02 01:14:40;;;;;;;2.22;1.60;;;9.40;99.90;;;;;;5032878;28;20225;-78
2024/01/02 01:17:09;;;;;;;2.83;1.83;;;9.40;99.90;;;;;;5032747;28;20221;-78
2024/01/02 01:19:41;;;;;;;5.47;1.50;;;9.40;99.90;;;;;;5032748;28;20298;-78
2024/01/02 01:22:07;;;;;;;6.88;2.35;;;9.40;99.90;;;;;;5032773;28;20229;-78
2024/01/02 01:24:36;;;;;;;2.45;1.58;;;9.40;99.90;;;;;;5032659;28;20320;-78
2024/01/02 01:27:03;;;;;;;1.67;1.55;;;9.40;99.90;;;;;;5032500;28;20229;-79
2024/01/02 01:29:30;;;;;;;4.88;1.80;;;9.40;99.90;;;;;;5033056;28;20554;-86
2024/01/02 01:31:57;;;;;;;3.10;1.70;;;9.40;99.90;;;;;;5032924;28;20225;-85
2024/01/02 01:34:24;;;;;;;2.92;1.92;;;9.40;99.90;;;;;;5033002;28;20248;-78
2024/01/02 01:36:52;;;;;;;2.28;1.35;;;9.40;99.90;;;;;;5032427;28;20692;-79
2024/01/02 01:39:19;;;;;;;5.75;2.65;;;9.40;99.90;;;;;;5032592;28;20264;-79
2024/01/02 01:41:47;;;;;;;3.70;2.20;;;9.40;99.90;;;;;;5032669;28;20226;-79
2024/01/02 01:44:14;;;;;;;3.65;2.38;;;9.40;99.90;;;;;;5033190;28;20308;-85
2024/01/02 01:46:42;;;;;;;3.67;2.10;;;9.40;99.90;;;;;;5032981;28;20217;-78
2024/01/02 01:49:12;;;;;;;5.32;2.80;;;9.40;99.90;;;;;;5031921;28;20228;-78
2024/01/02 01:51:42;;;;;;;5.07;2.80;;;9.40;99.90;;;;;;5032876;28;20225;-78
2024/01/02 01:54:11;;;;;;;3.45;1.80;;;9.30;99.90;;;;;;5032085;28;20244;-78
2024/01/02 01:56:40;;;;;;;3.83;2.35;;;9.30;99.90;;;;;;5035142;28;20248;-79
2024/01/02 01:59:10;;;;;;;5.32;2.40;;;9.20;99.90;;;;;;5035897;28;20233;-78
2024/01/02 02:01:38;;;;;;;4.25;2.30;;;9.20;99.90;;;;;;5036099;28;20237;-78
2024/01/02 02:04:05;;;;;;;4.32;1.95;;;9.20;99.90;;;;;;5035855;28;20313;-78
2024/01/02 02:06:32;;;;;;;3.03;2.20;;;9.20;99.90;;;;;;5036337;28;20249;-78
2024/01/02 02:08:59;;;;;;;4.30;2.22;;;9.10;99.90;;;;;;5035039;28;20218;-78
2024/01/02 02:11:27;;;;;;;7.68;2.33;;;9.20;99.90;;;;;;5035971;28;20240;-79
2024/01/02 02:13:55;;;;;;;4.05;1.80;;;9.10;99.90;;;;;;5035561;28;20240;-78
2024/01/02 02:16:23;;;;;;;5.15;2.35;;;9.00;99.90;;;;;;5036053;28;20240;-86
2024/01/02 02:18:53;;;;;;;6.40;2.30;;;9.00;99.90;;;;;;5035124;28;20226;-80
2024/01/02 02:21:20;;;;;;;7.28;3.28;;;9.00;99.90;;;;;;5036585;28;20255;-79
2024/01/02 02:23:48;;;;;;;5.32;2.05;;;8.90;99.90;;;;;;5035887;28;20240;-79
2024/01/02 02:26:15;;;;;;;3.83;2.55;;;8.80;99.90;;;;;;5035675;28;20562;-79
2024/01/02 02:28:42;;;;;;;4.82;2.53;;;8.70;99.90;;;;;;5036444;28;20688;-87
2024/01/02 02:31:09;;;;;;;7.80;2.72;;;8.80;99.90;;;;;;5035093;28;20565;-79
2024/01/02 02:33:38;;;;;;;4.32;2.10;;;8.70;99.90;;;;;;5036913;28;20236;-79
2024/01/02 02:36:07;;;;;;;6.38;1.83;;;8.70;99.90;;;;;;5035637;28;20229;-79
2024/01/02 02:38:34;;;;;;;6.78;1.73;;;8.70;99.90;;;;;;5035843;28;20237;-78
2024/01/02 02:41:03;;;;;;;7.63;2.25;;;8.70;99.90;;;;;;5034843;28;20755;-78
2024/01/02 02:43:30;;;;;;;9.05;3.13;;;8.60;99.90;;;;;;5035644;28;20233;-78
2024/01/02 02:45:57;;;;;;;4.95;2.67;;;8.50;99.90;;;;;;5034962;28;20229;-79
2024/01/02 02:48:24;;;;;;;5.45;2.35;;;8.50;99.90;;;;;;5035148;28;20228;-78
2024/01/02 02:50:51;;;;;;;8.50;2.30;;;8.50;99.90;;;;;;5035347;28;20248;-86
2024/01/02 02:53:18;;;;;;;21.13;3.22;;;8.50;99.90;;;;;;5034737;28;20249;-78
2024/01/02 02:55:45;;;;;;;6.38;2.20;;;8.50;99.90;;;;;;5035390;28;20252;-78
2024/01/02 02:58:14;;;;;;;6.50;2.55;;;8.50;99.90;;;;;;5034595;28;20249;-78
2024/01/02 03:00:41;;;;;;;8.63;3.05;;;8.50;99.90;;;;;;5035813;28;20716;-86
2024/01/02 03:03:08;;;;;;;3.45;2.28;;;8.50;99.90;;;;;;5035325;28;20229;-86
2024/01/02 03:05:35;;;;;;;5.03;2.67;;;8.50;99.90;;;;;;5035288;28;20229;-78
2024/01/02 03:08:03;;;;;;;3.65;2.42;;;8.50;99.90;;;;;;5035033;28;20705;-78
2024/01/02 03:10:30;;;;;;;4.60;1.77;;;8.50;99.90;;;;;;5034854;28;20237;-86
2024/01/02 03:12:57;;;;;;;8.48;2.30;;;8.50;99.90;;;;;;5034678;28;20229;-84
2024/01/02 03:15:26;;;;;;;8.02;2.10;;;8.50;99.90;;;;;;5042510;28;20766;-86
2024/01/02 03:17:53;;;;;;;4.40;2.90;;;8.40;99.90;;;;;;5034749;28;20287;-86
2024/01/02 03:20:20;;;;;;;7.60;3.17;;;8.40;99.90;;;;;;5034577;28;20308;-86
2024/01/02 03:22:47;;;;;;;7.38;2.10;;;8.40;99.90;;;;;;5034731;28;20237;-79
2024/01/02 03:25:14;;;;;;;10.25;3.72;;;8.30;99.90;;;;;;5034800;28;20279;-87
2024/01/02 03:27:41;;;;;;;9.75;2.65;;;8.30;99.90;;;;;;5035113;28;20232;-87
2024/01/02 03:30:09;;;;;;;5.25;2.60;;;8.20;99.90;;;;;;5034496;28;20673;-87
2024/01/02 03:32:37;;;;;;;5.45;2.88;;;8.20;99.90;;;;;;5035199;28;20267;-86
2024/01/02 03:35:05;;;;;;;5.90;2.20;;;8.20;99.90;;;;;;5034575;28;20701;-86
2024/01/02 03:37:32;;;;;;;5.22;2.33;;;8.20;99.90;;;;;;5035281;28;20236;-87
2024/01/02 03:39:59;;;;;;;5.07;3.15;;;8.10;99.90;;;;;;5034364;28;20229;-79
2024/01/02 03:42:26;;;;;;;4.60;2.40;;;8.20;99.90;;;;;;5034694;28;20290;-79
2024/01/02 03:44:53;;;;;;;10.93;3.67;;;8.10;99.90;;;;;;5034229;28;20222;-87
2024/01/02 03:47:20;;;;;;;11.40;3.47;;;8.10;99.90;;;;;;5034176;28;20217;-87
2024/01/02 03:49:48;;;;;;;6.93;2.47;;;8.10;99.90;;;;;;5033471;28;20683;-87
2024/01/02 03:52:16;;;;;;;11.82;3.95;;;8.10;99.90;;;;;;5033648;28;20233;-79
2024/01/02 03:54:43;;;;;;;4.65;2.65;;;8.10;99.90;;;;;;5034021;28;20283;-79
2024/01/02 03:57:10;;;;;;;5.38;2.47;;;8.10;99.90;;;;;;5033397;28;20264;-79
2024/01/02 03:59:37;;;;;;;5.53;3.35;;;8.10;99.90;;;;;;5035914;28;20307;-87
2024/01/02 04:02:05;;;;;;;8.00;1.92;;;8.00;99.90;;;;;;5034214;28;20237;-88
2024/01/02 04:04:32;;;;;;;6.75;3.25;;;8.00;99.90;;;;;;5033910;28;20236;-86
2024/01/02 04:07:01;;;;;;;6.90;3.10;;;7.90;99.90;;;;;;5033937;28;20217;-86
2024/01/02 04:09:28;;;;;;;6.00;2.15;;;7.90;99.90;;;;;;5027750;28;20636;-79
2024/01/02 04:11:55;;;;;;;7.78;2.65;;;7.90;99.90;;;;;;5046428;28;20229;-87
2024/01/02 04:14:22;;;;;;;11.00;2.65;;;7.80;99.90;;;;;;5034578;28;20221;-78
2024/01/02 04:16:49;;;;;;;8.98;3.13;;;7.90;99.90;;;;;;5034202;28;20221;-79
2024/01/02 04:19:17;;;;;;;9.88;3.10;;;7.80;99.90;;;;;;5033682;28;20229;-85
2024/01/02 04:21:45;;;;;;;3.60;2.35;;;7.80;99.90;;;;;;5034288;28;20681;-85
2024/01/02 04:24:13;;;;;;;8.80;3.70;;;7.70;99.90;;;;;;5034457;28;20225;-86
2024/01/02 04:26:40;;;;;;;9.77;2.70;;;7.70;99.90;;;;;;5033457;28;20256;-86
2024/01/02 04:29:07;;;;;;;10.95;3.45;;;7.70;99.90;;;;;;5032756;28;20271;-85
2024/01/02 04:31:34;;;;;;;7.40;2.65;;;7.70;99.90;;;;;;5033726;28;20225;-86
2024/01/02 04:34:01;;;;;;;5.20;2.17;;;7.70;99.90;;;;;;5033685;28;20233;-86
2024/01/02 04:36:28;;;;;;;7.63;2.90;;;7.70;99.90;;;;;;5033202;28;20236;-86
2024/01/02 04:38:55;;;;;;;9.57;3.05;;;7.70;99.90;;;;;;5034140;28;20237;-86
2024/01/02 04:41:24;;;;;;;5.55;2.60;;;7.70;99.90;;;;;;5034231;28;20560;-86
2024/01/02 04:43:51;;;;;;;4.57;2.50;;;7.70;99.90;;;;;;5034629;28;20235;-79
2024/01/02 04:46:21;;;;;;;7.68;2.70;;;7.70;99.90;;;;;;5034186;28;20226;-85
2024/01/02 04:48:48;;;;;;;10.35;2.63;;;7.70;99.90;;;;;;5034926;28;20236;-87
2024/01/02 04:51:26;;;;;;;7.55;2.20;;;7.70;99.90;;;;;;5034904;28;20222;-87
2024/01/02 04:53:52;;;;;;;6.32;2.45;;;7.70;99.90;;;;;;5034048;28;20235;-87
2024/01/02 04:56:20;;;;;;;7.20;2.65;;;7.70;99.90;;;;;;5033553;28;20229;-86
2024/01/02 04:58:48;;;;;;;8.05;3.20;;;7.70;99.90;;;;;;5033659;28;20236;-86
2024/01/02 05:01:15;;;;;;;5.30;3.13;;;7.70;99.90;;;;;;5033769;28;20221;-86
2024/01/02 05:03:43;;;;;;;9.27;3.55;;;7.70;99.90;;;;;;5033534;28;20283;-86
2024/01/02 05:06:10;;;;;;;7.55;2.97;;;7.70;99.90;;;;;;5033947;28;20221;-87
2024/01/02 05:08:36;;;;;;;4.85;2.40;;;7.60;99.90;;;;;;5033645;28;20217;-87
2024/01/02 05:11:04;;;;;;;6.82;3.08;;;7.60;99.90;;;;;;5034089;28;20304;-86
2024/01/02 05:13:31;;;;;;;7.53;3.20;;;7.60;99.90;;;;;;5033213;28;20236;-86
2024/01/02 05:15:59;;;;;;;8.15;3.00;;;7.60;99.90;;;;;;5033561;28;20681;-78
2024/01/02 05:18:26;;;;;;;10.77;2.80;;;7.60;99.90;;;;;;5032555;28;20236;-78
2024/01/02 05:20:53;;;;;;;4.40;1.85;;;7.60;99.90;;;;;;5033157;28;20259;-78
2024/01/02 05:23:20;;;;;;;6.35;2.85;;;7.60;99.90;;;;;;5032517;28;20236;-79
2024/01/02 05:25:47;;;;;;;5.60;2.80;;;7.60;99.90;;;;;;5032605;28;20233;-86
2024/01/02 05:28:14;;;;;;;6.55;2.25;;;7.60;99.90;;;;;;5032882;28;20229;-79
2024/01/02 05:30:41;;;;;;;7.07;3.35;;;7.60;99.90;;;;;;5036441;28;20598;-78
2024/01/02 05:33:09;;;;;;;4.63;2.33;;;7.60;99.90;;;;;;5035431;28;20731;-79
2024/01/02 05:35:36;;;;;;;5.35;2.70;;;7.50;99.90;;;;;;5036869;28;20660;-78
2024/01/02 05:38:03;;;;;;;7.70;2.88;;;7.50;99.90;;;;;;5036721;28;20221;-78
2024/01/02 05:40:31;;;;;;;6.18;2.53;;;7.50;99.90;;;;;;5035954;28;20241;-79
2024/01/02 05:42:58;;;;;;;7.93;2.90;;;7.50;99.90;;;;;;5036374;28;20327;-78
2024/01/02 05:45:25;;;;;;;12.38;4.25;;;7.50;99.90;;;;;;5036204;28;20221;-78
2024/01/02 05:47:52;;;;;;;6.38;4.22;;;7.50;99.90;;;;;;5035267;28;20221;-78
2024/01/02 05:50:20;;;;;;;7.55;3.45;;;7.50;99.90;;;;;;5036749;28;20715;-86
2024/01/02 05:52:47;;;;;;;4.45;2.80;;;7.50;99.90;;;;;;5036968;28;20229;-86
2024/01/02 05:55:14;;;;;;;3.83;2.83;;;7.50;99.90;;;;;;5037182;28;20241;-86
2024/01/02 05:57:41;;;;;;;8.93;3.70;;;7.50;99.90;;;;;;5036557;28;20221;-86
2024/01/02 06:00:09;;;;;;;8.82;2.90;;;7.50;99.90;;;;;;5036373;28;20296;-79
2024/01/02 06:02:36;;;;;;;7.53;3.00;;;7.50;99.90;;;;;;5036429;28;20233;-86
2024/01/02 06:05:06;;;;;;;4.68;3.28;;;7.50;99.90;;;;;;5037077;28;20221;-86
2024/01/02 06:07:34;;;;;;;7.25;3.38;;;7.40;99.90;;;;;;5036918;28;20233;-86
2024/01/02 06:10:02;;;;;;;6.38;2.90;;;7.30;99.90;;;;;;5036509;28;20226;-86
2024/01/02 06:12:29;;;;;;;7.18;3.10;;;7.30;99.90;;;;;;5036854;28;20598;-78
2024/01/02 06:14:56;;;;;;;4.97;2.60;;;7.30;99.90;;;;;;5036198;28;20284;-86
2024/01/02 06:17:23;;;;;;;6.53;3.03;;;7.30;99.90;;;;;;5035376;28;20221;-79
2024/01/02 06:19:50;;;;;;;6.30;2.60;;;7.20;99.90;;;;;;5037293;28;20236;-86
2024/01/02 06:22:17;;;;;;;5.32;3.05;;;7.30;99.90;;;;;;5036211;28;20591;-78
2024/01/02 06:24:45;;;;;;;3.50;2.50;;;7.30;99.90;;;;;;5038292;28;20295;-78
2024/01/02 06:27:12;;;;;;;4.30;2.13;;;7.30;99.90;;;;;;5035758;28;20275;-79
2024/01/02 06:29:39;;;;;;;4.38;2.40;;;7.30;99.90;;;;;;5034200;28;20225;-79
2024/01/02 06:32:07;;;;;;;6.25;2.35;;;7.30;99.90;;;;;;5035862;28;20236;-86
2024/01/02 06:34:34;;;;;;;7.05;2.97;;;7.30;99.90;;;;;;5035558;28;20225;-86
2024/01/02 06:37:01;;;;;;;7.75;3.35;;;7.30;99.90;;;;;;5035728;28;20233;-86
2024/01/02 06:39:28;;;;;;;8.80;3.05;;;7.30;99.90;;;;;;5034131;28;20224;-79
2024/01/02 06:41:56;;;;;;;7.85;3.40;;;7.30;99.90;;;;;;5041143;28;20225;-79
2024/01/02 06:44:26;;;;;;;5.88;2.25;;;7.30;99.90;;;;;;5034962;28;20225;-81
2024/01/02 06:46:53;;;;;;;7.53;3.08;;;7.20;99.90;;;;;;5035584;28;20225;-87
2024/01/02 06:49:20;;;;;;;7.88;2.60;;;7.20;99.90;;;;;;5035803;28;20692;-79
2024/01/02 06:51:47;;;;;;;5.30;2.83;;;7.10;99.90;;;;;;5035836;28;20527;-79
2024/01/02 06:54:14;;;;;;;8.57;3.10;;;7.10;99.90;;;;;;5035430;28;20226;-78
2024/01/02 06:56:41;;;;;;;11.88;6.03;;;7.10;99.90;;;;;;5034779;28;20253;-79
2024/01/02 06:59:09;;;;;;;7.50;3.03;;;7.10;99.90;;;;;;5035664;28;20225;-86
2024/01/02 07:01:37;;;;;;;3.97;2.55;;;7.10;99.90;;;;;;5034832;28;20565;-85
2024/01/02 07:04:04;;;;;;;7.45;2.85;;;7.10;99.90;;;;;;5035319;28;20221;-85
2024/01/02 07:06:32;;;;;;;7.53;3.30;;;7.10;99.90;;;;;;5035004;28;20567;-86
2024/01/02 07:08:59;;;;;;;6.53;2.80;;;7.10;99.90;;;;;;5034995;28;20225;-79
2024/01/02 07:11:26;;;;;;;7.88;2.88;;;7.00;99.90;;;;;;5034318;28;20248;-79
2024/01/02 07:13:54;;;;;;;9.55;2.90;;;7.10;99.90;;;;;;5034692;28;20256;-78
2024/01/02 07:16:22;;;;;;;3.95;2.22;;;7.10;99.90;;;;;;5034958;28;20707;-78
2024/01/02 07:18:49;;;;;;;7.97;2.95;;;7.10;99.90;;;;;;5034223;28;20227;-78
2024/01/02 07:21:22;;;;;;;6.93;3.15;;;7.10;99.90;;;;;;5035082;28;20308;-86
2024/01/02 07:23:49;;;;;;;5.55;2.80;;;7.10;99.90;;;;;;5035022;28;20661;-86
2024/01/02 07:26:19;;;;;;;5.82;2.50;;;7.10;99.90;;;;;;5035127;28;20236;-79
2024/01/02 07:28:46;;;;;;;5.93;3.10;;;7.20;99.90;;;;;;5034962;28;25758;-84
2024/01/02 07:31:13;;;;;;;7.43;3.30;;;7.10;99.90;;;;;;5035652;28;20304;-78
2024/01/02 07:33:42;;;;;;;5.93;2.50;;;7.10;99.90;;;;;;5034311;28;20308;-85
2024/01/02 07:36:09;;;;;;;7.50;3.05;;;7.10;99.90;;;;;;5034658;28;20225;-85
2024/01/02 07:38:38;;;;;;;6.35;3.10;;;7.10;99.90;;;;;;5034506;28;20577;-85
2024/01/02 07:41:05;;;;;;;7.55;2.88;;;7.10;99.90;;;;;;5034576;28;20241;-85
2024/01/02 07:43:32;;;;;;;5.82;2.50;;;7.10;99.90;;;;;;5034161;28;20238;-78
2024/01/02 07:45:59;;;;;;;5.78;2.50;;;7.10;99.90;;;;;;5034323;28;20244;-78
2024/01/02 07:48:26;;;;;;;3.65;2.35;;;7.10;99.90;;;;;;5033632;28;20225;-85
2024/01/02 07:50:55;;;;;;;5.95;2.75;;;7.10;99.90;;;;;;5034378;28;20228;-86
2024/01/02 07:53:22;;;;;;;4.60;2.65;;;7.10;99.90;;;;;;5034449;28;20233;-78
2024/01/02 07:55:49;;;;;;;6.07;3.22;;;7.10;99.90;;;;;;5033486;28;20225;-78
2024/01/02 07:58:16;;;;;;;5.70;2.33;;;7.10;99.90;;;;;;5034443;28;20312;-78
2024/01/02 08:00:43;;;;;;;4.75;2.83;;;7.10;99.90;;;;;;5033221;28;20251;-84
2024/01/02 08:03:10;;;;;;;7.10;2.58;;;7.10;99.90;;;;;;5036963;28;20236;-85
2024/01/02 08:05:37;;;;;;;9.23;2.78;;;7.10;99.90;;;;;;5038265;28;20225;-85
2024/01/02 08:08:08;;;;;;;15.07;3.20;;;7.10;99.90;;;;;;5036507;28;20248;-85
2024/01/02 08:10:35;;;;;;;5.82;3.08;;;7.10;99.90;;;;;;5035573;28;20221;-85
2024/01/02 08:13:02;;;;;;;4.93;2.70;;;7.10;99.90;;;;;;5037308;28;20298;-85
2024/01/02 08:15:30;;;;;;;6.20;2.50;;;7.10;99.90;;;;;;5037478;28;20294;-85
2024/01/02 08:17:58;;;;;;;4.70;2.55;;;7.10;99.90;;;;;;5038176;28;20303;-85
2024/01/02 08:20:25;;;;;;;8.32;2.90;;;7.10;99.90;;;;;;5051239;28;20221;-85
2024/01/02 08:22:52;;;;;;;7.68;2.63;;;7.10;99.90;;;;;;5050442;28;20229;-84
2024/01/02 08:25:23;;;;;;;4.47;2.58;;;7.20;99.90;;;;;;5046127;28;20618;-79
2024/01/02 08:27:51;;;;;;;6.68;2.38;;;7.20;99.90;;;;;;5034023;28;20222;-79
2024/01/02 08:30:21;;;;;;;6.03;2.58;;;7.10;99.90;;;;;;5033488;28;20264;-78
2024/01/02 08:32:49;;;;;;;5.63;2.35;;;7.20;99.90;;;;;;5032384;28;20689;-79
2024/01/02 08:35:16;;;;;;;5.63;2.70;;;7.30;99.90;;;;;;5034367;28;20235;-85
2024/01/02 08:37:44;;;;;;;3.15;2.00;;;7.30;99.90;;;;;;5037373;28;20229;-79
2024/01/02 08:40:12;;;;;;;4.47;2.65;;;7.30;99.90;;;;;;5039583;28;20232;-85
2024/01/02 08:42:41;;;;;;;5.40;2.05;;;7.20;99.90;;;;;;5048192;28;20240;-84
2024/01/02 08:45:10;;;;;;;5.38;2.83;;;7.30;99.90;;;;;;5049407;28;20247;-85
2024/01/02 08:47:41;;;;;;;4.15;2.55;;;7.30;99.90;;;;;;5047331;28;20233;-84
2024/01/02 08:50:09;;;;;;;6.40;2.65;;;7.30;99.90;;;;;;5046875;28;20217;-85
2024/01/02 08:52:36;;;;;;;8.70;3.10;;;7.30;99.90;;;;;;5047309;28;20229;-85
2024/01/02 08:55:03;;;;;;;7.10;2.70;;;7.30;99.90;;;;;;5046452;28;20229;-84
2024/01/02 08:57:30;;;;;;;4.32;2.15;;;7.30;99.90;;;;;;5044036;28;20225;-86
2024/01/02 08:59:59;;;;;;;5.75;2.63;;;7.30;99.90;;;;;;5032818;28;20229;-85
2024/01/02 09:02:29;;;;;;;5.95;2.20;;;7.30;99.90;;;;;;5033935;28;20312;-86
2024/01/02 09:04:56;;;;;;;4.18;3.25;;;7.30;99.90;;;;;;5034994;28;20240;-78
2024/01/02 09:07:23;;;;;;;5.45;2.65;;;7.30;99.90;;;;;;5037360;28;20578;-78
2024/01/02 09:09:50;;;;;;;6.25;3.92;;;7.30;99.90;;;;;;5036132;28;20735;-78
2024/01/02 09:12:17;;;;;;;11.23;2.92;;;7.30;99.90;;;;;;5037546;28;20244;-86
2024/01/02 09:14:45;;;;;;;3.58;2.35;;;7.20;99.90;;;;;;5037151;28;20229;-85
2024/01/02 09:17:13;;;;;;;4.25;2.25;;;7.30;99.90;;;;;;5037082;28;20217;-85
2024/01/02 09:19:40;;;;;;;4.65;2.58;;;7.30;99.90;;;;;;5036569;28;20229;-78
2024/01/02 09:22:07;;;;;;;10.00;3.15;;;7.30;99.90;;;;;;5036389;28;20235;-86
2024/01/02 09:24:35;;;;;;;7.25;2.33;;;7.20;99.90;;;;;;5037121;28;20233;-78
2024/01/02 09:27:06;;;;;;;5.75;2.40;;;7.20;99.90;;;;;;5035525;28;20259;-78
2024/01/02 09:29:35;;;;;;;5.05;2.72;;;7.30;99.90;;;;;;5036842;28;20578;-79
2024/01/02 09:32:02;;;;;;;4.03;2.05;;;7.30;99.90;;;;;;5036708;28;20577;-87
2024/01/02 09:34:30;;;;;;;2.67;2.45;;;7.40;99.90;;;;;;5037289;28;20226;-87
2024/01/02 09:36:58;;;;;;;4.35;2.50;;;7.40;99.90;;;;;;5033716;28;20220;-87
2024/01/02 09:39:25;;;;;;;4.53;2.42;;;7.40;99.90;;;;;;5028032;28;20237;-86
2024/01/02 09:42:07;;;;;;;3.03;2.13;;;7.40;99.90;;;;;;5047897;28;20704;-86
2024/01/02 09:44:48;;;;;;;3.03;1.85;;;7.40;99.90;;;;;;5038517;28;20665;-86
2024/01/02 09:47:28;;;;;;;3.67;2.15;;;7.40;99.90;;;;;;5046782;28;20540;-86
2024/01/02 09:49:59;;;;;;;6.47;2.10;;;7.40;99.90;;;;;;5035922;28;20221;-79
2024/01/02 09:52:49;;;;;;;8.00;2.50;;;7.40;99.90;;;;;;5036149;28;20226;-79
2024/01/02 09:55:25;;;;;;;1.85;1.70;;;7.40;99.90;;;;;;5049002;28;20302;-79
2024/01/02 09:58:04;;;;;;;3.03;2.38;;;7.40;99.90;;;;;;5035951;28;20257;-79
2024/01/02 10:00:46;;;;;;;2.55;2.20;;;7.40;99.90;;;;;;5036279;28;20316;-79
2024/01/02 10:03:30;;;;;;;2.60;1.90;;;7.40;99.90;;;;;;5036631;28;20232;-79
2024/01/02 10:06:15;;;;;;;2.78;2.20;;;7.40;99.90;;;;;;5036863;28;20229;-79
2024/01/02 10:09:10;;;;;;;2.67;2.25;;;7.50;99.90;;;;;;5036628;28;20221;-87
2024/01/02 10:11:48;;;;;;;3.65;2.33;;;7.40;99.90;;;;;;5036778;28;20308;-86
2024/01/02 10:14:23;;;;;;;3.55;2.13;;;7.40;99.90;;;;;;5016347;28;20226;-79
2024/01/02 10:17:03;;;;;;;8.82;2.15;;;7.30;99.90;;;;;;5015555;28;20681;-87
2024/01/02 10:19:40;;;;;;;5.07;3.35;;;7.40;99.90;;;;;;5016748;28;20700;-79
2024/01/02 10:22:22;;;;;;;3.03;2.42;;;7.40;99.90;;;;;;5017741;28;20245;-79
2024/01/02 10:24:53;;;;;;;4.13;2.60;;;7.40;99.90;;;;;;5018587;28;20233;-80
2024/01/02 10:27:27;;;;;;;4.63;2.47;;;7.40;99.90;;;;;;5016299;28;20225;-79
2024/01/02 10:30:03;;;;;;;6.15;2.85;;;7.40;99.90;;;;;;5015650;28;20717;-79
2024/01/02 10:32:43;;;;;;;4.60;2.70;;;7.40;99.90;;;;;;5015816;28;20681;-79
2024/01/02 10:35:13;;;;;;;3.30;2.15;;;7.40;99.90;;;;;;5015368;28;20332;-79
2024/01/02 10:37:48;;;;;;;3.55;2.17;;;7.40;99.90;;;;;;5015969;28;20229;-79
2024/01/02 10:40:23;;;;;;;2.67;2.47;;;7.40;99.90;;;;;;5030234;28;20275;-79
2024/01/02 10:43:02;;;;;;;5.15;2.75;;;7.40;99.90;;;;;;5035875;28;20282;-86
2024/01/02 10:45:40;;;;;;;2.85;2.05;;;7.40;99.90;;;;;;5035230;28;20217;-79
2024/01/02 10:48:21;;;;;;;6.97;2.60;;;7.40;99.90;;;;;;5035925;28;20217;-86
2024/01/02 10:51:04;;;;;;;2.42;2.20;;;7.40;99.90;;;;;;5035706;28;20610;-79
2024/01/02 10:53:46;;;;;;;2.78;2.30;;;7.30;99.90;;;;;;5029446;28;20222;-78
2024/01/02 10:56:24;;;;;;;6.95;2.30;;;7.40;99.90;;;;;;5015034;28;20240;-78
2024/01/02 10:59:04;;;;;;;4.40;3.08;;;7.40;99.90;;;;;;5015063;28;20225;-86
2024/01/02 11:01:34;;;;;;;4.95;2.63;;;7.30;99.90;;;;;;5016478;28;20603;-86
2024/01/02 11:04:08;;;;;;;5.30;2.97;;;7.30;99.90;;;;;;5015326;28;20312;-86
2024/01/02 11:06:46;;;;;;;4.32;2.65;;;7.30;99.90;;;;;;5015523;28;20292;-79
2024/01/02 11:09:24;;;;;;;4.80;2.00;;;7.20;99.90;;;;;;5015766;28;20240;-85
2024/01/02 11:11:52;;;;;;;3.33;2.40;;;7.30;99.90;;;;;;5016341;28;20282;-86
2024/01/02 11:14:30;;;;;;;2.58;2.38;;;7.20;99.90;;;;;;5035080;28;20236;-86
2024/01/02 11:16:59;;;;;;;4.07;2.63;;;7.10;99.90;;;;;;5032711;28;20232;-79
2024/01/02 11:19:39;;;;;;;3.17;2.53;;;7.10;99.90;;;;;;5014773;28;20697;-79
2024/01/02 11:22:12;;;;;;;4.13;2.60;;;7.20;99.90;;;;;;4995330;28;20234;-86
2024/01/02 11:24:48;;;;;;;3.95;2.75;;;7.30;99.90;;;;;;5022753;28;20233;-86
2024/01/02 11:27:24;;;;;;;4.07;2.97;;;7.30;99.90;;;;;;5023304;28;20229;-87
2024/01/02 11:29:55;;;;;;;2.65;2.45;;;7.20;99.90;;;;;;5016476;28;20232;-86
2024/01/02 11:32:32;;;;;;;3.15;2.63;;;7.20;99.90;;;;;;5020657;28;20536;-86
2024/01/02 11:35:05;;;;;;;9.38;3.17;;;7.30;99.90;;;;;;5014018;28;20759;-79
2024/01/02 11:37:36;;;;;;;4.53;2.65;;;7.30;99.90;;;;;;5014858;28;20619;-79
2024/01/02 11:40:17;;;;;;;4.30;3.90;;;7.30;99.90;;;;;;5013778;28;20670;-86
2024/01/02 11:42:54;;;;;;;4.18;3.00;;;7.40;99.90;;;;;;5014623;28;20317;-85
2024/01/02 11:45:22;;;;;;;3.33;2.80;;;7.40;99.90;;;;;;5024320;28;20232;-77
2024/01/02 11:47:58;;;;;;;3.22;3.03;;;7.40;99.90;;;;;;5034411;28;20309;-78
2024/01/02 11:50:36;;;;;;;3.83;3.53;;;7.40;99.90;;;;;;5034036;28;20719;-84
2024/01/02 11:53:06;;;;;;;3.90;2.90;;;7.50;99.90;;;;;;5023857;28;20225;-82
2024/01/02 11:55:46;;;;;;;4.45;2.85;;;7.50;99.90;;;;;;5034569;28;20255;-84
2024/01/02 11:58:23;;;;;;;3.50;2.80;;;7.40;99.90;;;;;;5033541;28;20316;-84
2024/01/02 12:01:04;;;;;;;4.80;3.83;;;7.50;99.90;;;;;;5034220;28;20221;-84
2024/01/02 12:03:50;;;;;;;2.90;2.70;;;7.50;99.90;;;;;;5033758;28;20218;-84
2024/01/02 12:06:25;;;;;;;4.20;3.40;;;7.50;99.90;;;;;;5034068;28;20252;-84
2024/01/02 12:08:55;;;;;;;3.20;2.92;;;7.50;99.90;;;;;;5028510;28;20563;-85
2024/01/02 12:11:29;;;;;;;3.88;3.03;;;7.50;99.90;;;;;;5042771;28;20681;-78
2024/01/02 12:14:22;;;;;;;4.78;4.38;;;7.50;99.90;;;;;;5034180;28;20287;-85
2024/01/02 12:16:51;;;;;;;4.13;3.10;;;7.50;99.90;;;;;;5034914;28;20297;-84
2024/01/02 12:19:23;;;;;;;3.40;3.10;;;7.50;99.90;;;;;;5033664;28;20229;-85
2024/01/02 12:21:51;;;;;;;3.50;3.30;;;7.50;99.90;;;;;;5033682;28;20276;-78
2024/01/02 12:24:19;;;;;;;7.32;3.20;;;7.60;99.90;;;;;;5033032;28;20229;-78
2024/01/02 12:26:49;;;;;;;3.05;2.80;;;7.60;99.90;;;;;;5033646;28;20252;-78
2024/01/02 12:29:26;;;;;;;4.30;2.72;;;7.70;99.90;;;;;;5032961;28;20236;-78
2024/01/02 12:32:00;;;;;;;3.70;3.40;;;7.60;99.90;;;;;;5033156;28;20225;-78
2024/01/02 12:34:34;;;;;;;4.03;3.67;;;7.50;99.90;;;;;;5033252;28;20293;-78
2024/01/02 12:37:14;;;;;;;3.35;3.05;;;7.50;99.90;;;;;;5032269;28;20611;-78
2024/01/02 12:39:44;;;;;;;3.92;3.58;;;7.50;99.90;;;;;;5030303;28;20217;-78
2024/01/02 12:42:18;;;;;;;4.50;3.13;;;7.60;99.90;;;;;;5013085;28;20222;-78
2024/01/02 12:44:51;;;;;;;7.72;3.92;;;7.60;99.90;;;;;;5027932;28;20245;-78
2024/01/02 12:47:23;;;;;;;4.30;3.90;;;7.60;99.90;;;;;;5032886;28;20235;-78
2024/01/02 12:49:56;;;;;;;3.60;3.20;;;7.60;99.90;;;;;;5033492;28;20229;-78
2024/01/02 12:52:32;;;;;;;7.10;3.67;;;7.60;99.90;;;;;;5032317;28;20310;-78
2024/01/02 12:55:00;;;;;;;4.63;3.63;;;7.60;99.90;;;;;;5032461;28;20221;-79
2024/01/02 12:57:33;;;;;;;4.88;3.60;;;7.70;99.90;;;;;;5033208;28;20662;-78
2024/01/02 13:00:00;;;;;;;7.60;3.90;;;7.70;99.90;;;;;;5032432;28;20256;-79
2024/01/02 13:02:36;;;;;;;3.90;3.28;;;7.70;99.90;;;;;;5032804;28;20244;-78
2024/01/02 13:05:05;;;;;;;3.63;3.33;;;7.70;99.90;;;;;;5032868;28;20217;-84
2024/01/02 13:07:36;;;;;;;3.60;3.28;;;7.70;99.90;;;;;;5033597;28;20218;-85
2024/01/02 13:10:04;;;;;;;4.95;3.45;;;7.70;99.90;;;;;;5032625;28;20228;-86